createdAt,value
2018-06-19T00:01:17.916Z,99.90
2018-06-19T00:03:46.866Z,99.90
2018-06-19T00:06:15.905Z,99.90
2018-06-19T00:08:44.910Z,99.90
2018-06-19T00:11:13.912Z,99.90
2018-06-19T00:13:42.895Z,99.90
2018-06-19T00:16:11.899Z,99.90
2018-06-19T00:18:44.942Z,99.90
2018-06-19T00:21:16.786Z,99.90
2018-06-19T00:23:45.734Z,99.90
2018-06-19T00:26:14.725Z,99.90
2018-06-19T00:28:45.353Z,99.90
2018-06-19T00:33:43.038Z,99.90
2018-06-19T00:36:12.066Z,99.90
2018-06-19T00:38:41.150Z,99.90
2018-06-19T00:41:10.130Z,99.90
2018-06-19T00:43:39.359Z,99.90
2018-06-19T00:46:08.761Z,99.90
2018-06-19T00:48:37.726Z,99.90
2018-06-19T00:51:06.759Z,99.90
2018-06-19T00:53:35.690Z,99.90
2018-06-19T00:57:13.542Z,99.90
2018-06-19T00:59:42.584Z,99.90
2018-06-19T01:02:11.589Z,99.90
2018-06-19T01:04:40.564Z,99.90
2018-06-19T01:07:09.602Z,99.90
2018-06-19T01:09:38.562Z,99.90
2018-06-19T01:12:07.539Z,99.90
2018-06-19T01:14:36.531Z,99.90
2018-06-19T01:17:05.642Z,99.90
2018-06-19T01:19:34.671Z,99.90
2018-06-19T01:22:03.639Z,99.90
2018-06-19T01:24:32.664Z,99.90
2018-06-19T01:27:01.844Z,99.90
2018-06-19T01:29:30.846Z,99.90
2018-06-19T01:31:59.816Z,99.90
2018-06-19T01:36:57.474Z,99.90
2018-06-19T01:39:26.499Z,99.90
2018-06-19T01:41:55.558Z,99.90
2018-06-19T01:44:24.586Z,99.90
2018-06-19T01:46:53.595Z,99.90
2018-06-19T01:49:22.655Z,99.90
2018-06-19T01:51:51.666Z,99.90
2018-06-19T01:54:20.635Z,99.90
2018-06-19T01:56:49.666Z,99.90
2018-06-19T01:59:18.766Z,99.90
2018-06-19T02:01:47.771Z,99.90
2018-06-19T02:04:16.806Z,99.90
2018-06-19T02:06:45.844Z,99.90
2018-06-19T02:09:14.798Z,99.90
2018-06-19T02:11:43.895Z,99.90
2018-06-19T02:14:12.930Z,99.90
2018-06-19T02:16:42.742Z,99.90
2018-06-19T02:19:11.735Z,99.90
2018-06-19T02:21:40.817Z,99.90
2018-06-19T02:24:09.814Z,99.90
2018-06-19T02:26:38.808Z,99.90
2018-06-19T02:29:07.766Z,99.90
2018-06-19T02:31:36.863Z,99.90
2018-06-19T02:34:05.855Z,99.90
2018-06-19T02:36:34.858Z,99.90
2018-06-19T02:39:05.679Z,99.90
2018-06-19T02:41:34.667Z,99.90
2018-06-19T02:44:04.427Z,99.90
2018-06-19T02:46:33.466Z,99.90
2018-06-19T02:49:02.628Z,99.90
2018-06-19T02:51:31.714Z,99.90
2018-06-19T02:54:01.312Z,99.90
2018-06-19T02:56:30.287Z,99.90
2018-06-19T02:58:59.250Z,99.90
2018-06-19T03:01:28.267Z,99.90
2018-06-19T03:03:57.238Z,99.90
2018-06-19T03:06:26.227Z,99.90
2018-06-19T03:08:55.256Z,99.90
2018-06-19T03:11:24.318Z,99.90
2018-06-19T03:13:53.328Z,99.90
2018-06-19T03:16:22.287Z,99.90
2018-06-19T03:18:51.248Z,99.90
2018-06-19T03:21:20.210Z,99.90
2018-06-19T03:23:49.207Z,99.90
2018-06-19T03:26:18.218Z,99.90
2018-06-19T03:28:47.210Z,99.90
2018-06-19T03:31:16.213Z,99.90
2018-06-19T03:33:45.176Z,99.90
2018-06-19T03:36:14.204Z,99.90
2018-06-19T03:38:43.182Z,99.90
2018-06-19T03:41:12.195Z,99.90
2018-06-19T03:43:41.171Z,99.90
2018-06-19T03:46:10.194Z,99.90
2018-06-19T03:48:39.312Z,99.90
2018-06-19T03:51:08.267Z,99.90
2018-06-19T03:53:37.300Z,99.90
2018-06-19T03:56:06.289Z,99.90
2018-06-19T03:58:35.298Z,99.90
2018-06-19T04:01:04.341Z,99.90
2018-06-19T04:03:33.376Z,99.90
2018-06-19T04:06:02.419Z,99.90
2018-06-19T04:08:31.387Z,99.90
2018-06-19T04:11:00.503Z,99.90
2018-06-19T04:13:29.447Z,99.90
2018-06-19T04:15:58.547Z,99.90
2018-06-19T04:18:27.542Z,99.90
2018-06-19T04:20:56.526Z,99.90
2018-06-19T04:23:25.490Z,99.90
2018-06-19T04:25:54.611Z,99.90
2018-06-19T04:28:23.614Z,99.90
2018-06-19T04:30:52.583Z,99.90
2018-06-19T04:33:21.561Z,99.90
2018-06-19T04:35:50.689Z,99.90
2018-06-19T04:38:19.718Z,99.90
2018-06-19T04:40:48.698Z,99.90
2018-06-19T04:43:17.670Z,99.90
2018-06-19T04:45:46.663Z,99.90
2018-06-19T04:48:15.672Z,99.90
2018-06-19T04:50:44.810Z,99.90
2018-06-19T04:53:13.769Z,99.90
2018-06-19T04:55:42.778Z,99.90
2018-06-19T04:58:11.759Z,99.90
2018-06-19T05:00:40.784Z,99.90
2018-06-19T05:03:09.998Z,99.90
2018-06-19T05:05:39.044Z,99.90
2018-06-19T05:08:08.049Z,99.90
2018-06-19T05:10:37.010Z,99.90
2018-06-19T05:13:05.988Z,99.90
2018-06-19T05:15:34.971Z,99.90
2018-06-19T05:18:03.922Z,99.90
2018-06-19T05:20:32.919Z,99.90
2018-06-19T05:23:01.888Z,99.90
2018-06-19T05:25:30.866Z,99.90
2018-06-19T05:27:59.898Z,99.90
2018-06-19T05:30:28.996Z,99.90
2018-06-19T05:32:57.946Z,99.90
2018-06-19T05:35:26.943Z,99.90
2018-06-19T05:37:55.934Z,99.90
2018-06-19T05:40:25.196Z,99.90
2018-06-19T05:42:54.605Z,99.90
2018-06-19T05:45:23.554Z,99.90
2018-06-19T05:47:52.586Z,99.90
2018-06-19T05:50:21.598Z,99.90
2018-06-19T05:52:50.657Z,99.90
2018-06-19T05:55:19.606Z,99.90
2018-06-19T05:57:48.668Z,99.90
2018-06-19T06:00:17.650Z,99.90
2018-06-19T06:02:46.914Z,99.90
2018-06-19T06:05:15.952Z,99.90
2018-06-19T06:07:45.052Z,99.90
2018-06-19T06:10:14.563Z,99.90
2018-06-19T06:12:43.630Z,99.90
2018-06-19T06:15:12.634Z,99.90
2018-06-19T06:17:41.649Z,99.90
2018-06-19T06:20:10.703Z,99.90
2018-06-19T06:22:40.687Z,99.90
2018-06-19T06:25:09.647Z,99.90
2018-06-19T06:27:38.670Z,99.90
2018-06-19T06:30:07.711Z,99.90
2018-06-19T06:32:36.734Z,99.90
2018-06-19T06:35:05.727Z,99.90
2018-06-19T06:37:34.747Z,99.90
2018-06-19T06:40:03.811Z,99.90
2018-06-19T06:42:32.788Z,99.90
2018-06-19T06:45:01.935Z,99.90
2018-06-19T06:47:30.933Z,99.90
2018-06-19T06:49:59.932Z,99.90
2018-06-19T06:52:28.898Z,99.90
2018-06-19T06:54:57.908Z,99.90
2018-06-19T06:57:26.901Z,99.90
2018-06-19T06:59:55.867Z,99.90
2018-06-19T07:02:24.962Z,99.90
2018-06-19T07:04:54.011Z,99.90
2018-06-19T07:07:23.131Z,99.90
2018-06-19T07:09:52.184Z,99.90
2018-06-19T07:12:21.158Z,99.90
2018-06-19T07:14:50.186Z,99.90
2018-06-19T07:17:19.202Z,99.90
2018-06-19T07:19:48.262Z,99.90
2018-06-19T07:22:17.264Z,99.90
2018-06-19T07:24:46.222Z,99.90
2018-06-19T07:27:15.235Z,99.90
2018-06-19T07:29:44.223Z,99.90
2018-06-19T07:32:13.263Z,99.90
2018-06-19T07:34:42.275Z,99.90
2018-06-19T07:37:11.303Z,99.90
2018-06-19T07:39:40.270Z,99.90
2018-06-19T07:42:09.267Z,99.90
2018-06-19T07:44:38.274Z,99.90
2018-06-19T07:47:07.296Z,99.90
2018-06-19T07:49:36.330Z,99.90
2018-06-19T07:52:05.396Z,99.90
2018-06-19T07:54:34.403Z,99.90
2018-06-19T07:57:03.567Z,99.90
2018-06-19T07:59:32.572Z,99.90
2018-06-19T08:02:01.656Z,99.90
2018-06-19T08:04:30.673Z,99.90
2018-06-19T08:06:59.743Z,99.90
2018-06-19T08:09:28.699Z,99.90
2018-06-19T08:11:57.694Z,99.90
2018-06-19T08:14:26.669Z,99.90
2018-06-19T08:16:55.692Z,99.90
2018-06-19T08:19:24.655Z,99.90
2018-06-19T08:21:53.648Z,99.90
2018-06-19T08:24:22.676Z,99.90
2018-06-19T08:26:51.714Z,99.90
2018-06-19T08:29:20.674Z,99.90
2018-06-19T08:31:49.808Z,99.90
2018-06-19T08:34:19.739Z,99.90
2018-06-19T08:36:48.818Z,99.90
2018-06-19T08:39:17.946Z,99.90
2018-06-19T08:41:46.830Z,99.90
2018-06-19T08:44:15.771Z,99.90
2018-06-19T08:46:44.778Z,99.90
2018-06-19T08:49:13.774Z,99.90
2018-06-19T08:51:42.811Z,99.90
2018-06-19T08:54:11.871Z,99.90
2018-06-19T08:56:40.912Z,99.90
2018-06-19T08:59:09.931Z,99.90
2018-06-19T09:01:38.927Z,99.90
2018-06-19T09:04:07.962Z,99.90
2018-06-19T09:06:36.978Z,99.90
2018-06-19T09:09:08.020Z,99.90
2018-06-19T09:11:37.046Z,99.90
2018-06-19T09:14:06.003Z,99.90
2018-06-19T09:16:35.030Z,99.90
2018-06-19T09:19:04.029Z,99.90
2018-06-19T09:21:32.982Z,99.90
2018-06-19T09:24:02.023Z,99.90
2018-06-19T09:26:30.990Z,99.90
2018-06-19T09:28:59.972Z,99.90
2018-06-19T09:31:29.037Z,99.90
2018-06-19T09:33:58.435Z,99.90
2018-06-19T09:36:27.504Z,99.90
2018-06-19T09:38:56.450Z,99.90
2018-06-19T09:41:25.423Z,99.90
2018-06-19T09:43:54.405Z,99.90
2018-06-19T09:46:23.427Z,99.90
2018-06-19T09:48:52.407Z,99.90
2018-06-19T09:51:21.467Z,99.90
2018-06-19T09:53:50.704Z,99.90
2018-06-19T09:56:19.695Z,99.90
2018-06-19T09:58:48.983Z,99.90
2018-06-19T10:01:17.934Z,99.90
2018-06-19T10:03:46.898Z,99.90
2018-06-19T10:06:16.004Z,99.90
2018-06-19T10:08:44.962Z,99.90
2018-06-19T10:11:14.026Z,99.90
2018-06-19T10:13:43.037Z,99.90
2018-06-19T10:16:12.028Z,99.90
2018-06-19T10:18:41.005Z,99.90
2018-06-19T10:21:09.984Z,99.90
2018-06-19T10:23:38.976Z,99.90
2018-06-19T10:26:08.026Z,99.90
2018-06-19T10:28:37.008Z,99.90
2018-06-19T10:31:06.186Z,99.90
2018-06-19T10:33:35.184Z,99.90
2018-06-19T10:36:04.174Z,99.90
2018-06-19T10:38:33.169Z,99.90
2018-06-19T10:41:02.147Z,99.90
2018-06-19T10:43:31.110Z,99.90
2018-06-19T10:46:00.106Z,99.90
2018-06-19T10:48:29.090Z,99.90
2018-06-19T10:50:58.093Z,99.90
2018-06-19T10:53:27.057Z,99.90
2018-06-19T10:55:56.025Z,99.90
2018-06-19T10:58:25.043Z,99.90
2018-06-19T11:00:54.211Z,99.90
2018-06-19T11:03:23.254Z,99.90
2018-06-19T11:05:52.827Z,99.90
2018-06-19T11:08:21.931Z,99.90
2018-06-19T11:10:50.876Z,99.90
2018-06-19T11:13:19.895Z,99.90
2018-06-19T11:15:48.846Z,99.90
2018-06-19T11:18:17.787Z,99.90
2018-06-19T11:20:46.779Z,99.90
2018-06-19T11:23:15.811Z,99.90
2018-06-19T11:25:44.885Z,99.90
2018-06-19T11:28:13.766Z,99.90
2018-06-19T11:30:42.846Z,99.90
2018-06-19T11:33:11.844Z,99.90
2018-06-19T11:35:40.924Z,99.90
2018-06-19T11:38:10.395Z,99.90
2018-06-19T11:40:39.662Z,99.90
2018-06-19T11:43:08.798Z,99.90
2018-06-19T11:45:37.785Z,99.90
2018-06-19T11:48:06.735Z,99.90
2018-06-19T11:50:35.747Z,99.90
2018-06-19T11:53:04.766Z,99.90
2018-06-19T11:55:33.795Z,99.90
2018-06-19T11:58:03.267Z,99.90
2018-06-19T12:00:32.263Z,99.90
2018-06-19T12:03:01.639Z,99.90
2018-06-19T12:05:31.331Z,99.90
2018-06-19T12:08:00.322Z,99.90
2018-06-19T12:10:29.291Z,99.90
2018-06-19T12:12:59.044Z,99.90
2018-06-19T12:15:28.007Z,99.90
2018-06-19T12:17:57.066Z,99.90
2018-06-19T12:20:26.020Z,99.90
2018-06-19T12:22:55.092Z,99.90
2018-06-19T12:25:24.107Z,99.90
2018-06-19T12:27:53.126Z,99.90
2018-06-19T12:30:22.076Z,99.90
2018-06-19T12:32:51.047Z,99.90
2018-06-19T12:35:20.003Z,99.90
2018-06-19T12:37:49.033Z,99.90
2018-06-19T12:40:18.041Z,99.90
2018-06-19T12:42:47.087Z,99.90
2018-06-19T12:45:16.089Z,99.90
2018-06-19T12:47:45.291Z,99.90
2018-06-19T12:50:38.479Z,99.90
2018-06-19T12:53:19.447Z,99.90
2018-06-19T12:56:00.430Z,99.90
2018-06-19T12:58:29.454Z,99.90
2018-06-19T13:00:58.588Z,99.90
2018-06-19T13:03:38.908Z,99.90
2018-06-19T13:06:19.449Z,99.90
2018-06-19T13:08:48.551Z,99.90
2018-06-19T13:11:17.568Z,99.90
2018-06-19T13:13:57.782Z,99.90
2018-06-19T13:16:38.074Z,99.90
2018-06-19T13:19:22.531Z,99.90
2018-06-19T13:21:51.662Z,99.90
2018-06-19T13:24:20.818Z,99.90
2018-06-19T13:26:49.934Z,99.90
2018-06-19T13:29:40.280Z,99.90
2018-06-19T13:32:09.303Z,99.90
2018-06-19T13:34:38.861Z,99.90
2018-06-19T13:37:07.906Z,99.90
2018-06-19T13:39:37.682Z,99.90
2018-06-19T13:42:23.174Z,98.30
2018-06-19T13:45:01.538Z,96.90
2018-06-19T13:47:30.538Z,97.50
2018-06-19T13:49:59.564Z,95.70
2018-06-19T13:52:28.571Z,95.30
2018-06-19T13:57:24.780Z,94.00
2018-06-19T13:59:53.775Z,93.70
2018-06-19T14:02:22.826Z,94.30
2018-06-19T14:04:51.830Z,95.70
2018-06-19T14:07:21.694Z,96.90
2018-06-19T14:10:01.832Z,98.30
2018-06-19T14:13:02.071Z,96.50
2018-06-19T14:15:36.131Z,96.60
2018-06-19T14:18:05.606Z,97.00
2018-06-19T14:20:34.615Z,97.10
2018-06-19T14:23:03.710Z,98.20
2018-06-19T14:25:32.826Z,98.20
2018-06-19T14:28:01.789Z,99.20
2018-06-19T14:30:30.806Z,98.70
2018-06-19T14:32:59.775Z,99.10
2018-06-19T14:35:28.782Z,99.20
2018-06-19T14:37:57.871Z,98.80
2018-06-19T14:40:26.828Z,98.70
2018-06-19T14:42:55.899Z,99.20
2018-06-19T14:45:25.041Z,99.50
2018-06-19T14:47:54.008Z,99.50
2018-06-19T14:50:22.988Z,99.90
2018-06-19T14:52:52.087Z,99.70
2018-06-19T14:55:21.131Z,99.90
2018-06-19T14:57:50.119Z,99.90
2018-06-19T15:00:19.219Z,99.90
2018-06-19T15:02:48.207Z,99.90
2018-06-19T15:05:17.179Z,99.80
2018-06-19T15:07:52.495Z,99.90
2018-06-19T15:10:21.861Z,99.90
2018-06-19T15:12:50.707Z,99.90
2018-06-19T15:15:19.662Z,99.70
2018-06-19T15:17:48.655Z,99.70
2018-06-19T15:20:17.901Z,98.70
2018-06-19T15:22:46.892Z,98.80
2018-06-19T15:25:15.982Z,99.10
2018-06-19T15:27:44.950Z,99.30
2018-06-19T15:30:13.960Z,99.60
2018-06-19T15:32:42.936Z,99.80
2018-06-19T15:35:12.004Z,99.90
2018-06-19T15:37:41.037Z,99.90
2018-06-19T15:40:10.059Z,99.90
2018-06-19T15:42:39.016Z,99.90
2018-06-19T15:45:08.000Z,99.90
2018-06-19T15:47:37.039Z,99.90
2018-06-19T15:50:07.427Z,99.90
2018-06-19T15:52:36.388Z,99.90
2018-06-19T15:55:05.339Z,99.90
2018-06-19T15:57:34.454Z,99.90
2018-06-19T16:00:03.750Z,99.90
2018-06-19T16:02:32.753Z,99.90
2018-06-19T16:05:01.770Z,99.90
2018-06-19T16:07:30.707Z,99.90
2018-06-19T16:09:59.807Z,99.90
2018-06-19T16:12:28.782Z,99.90
2018-06-19T16:14:57.791Z,99.90
2018-06-19T16:17:26.862Z,99.90
2018-06-19T16:19:55.854Z,99.90
2018-06-19T16:22:24.891Z,99.90
2018-06-19T16:24:53.940Z,99.90
2018-06-19T16:27:23.038Z,99.90
2018-06-19T16:29:52.006Z,99.90
2018-06-19T16:32:20.966Z,99.90
2018-06-19T16:34:50.030Z,99.90
2018-06-19T16:37:19.035Z,99.90
2018-06-19T16:39:48.094Z,99.90
2018-06-19T16:42:17.025Z,99.90
2018-06-19T16:44:46.006Z,99.90
2018-06-19T16:47:15.354Z,99.90
2018-06-19T16:49:44.398Z,99.90
2018-06-19T16:52:13.826Z,99.90
2018-06-19T16:54:42.901Z,99.90
2018-06-19T16:57:11.972Z,99.90
2018-06-19T16:59:41.119Z,99.90
2018-06-19T17:02:11.469Z,99.90
2018-06-19T17:04:40.431Z,99.90
2018-06-19T17:07:09.435Z,99.90
2018-06-19T17:09:38.387Z,99.90
2018-06-19T17:12:07.588Z,99.90
2018-06-19T17:14:36.559Z,99.90
2018-06-19T17:17:06.038Z,99.90
2018-06-19T17:19:35.049Z,99.90
2018-06-19T17:22:04.312Z,99.90
2018-06-19T17:24:33.451Z,99.90
2018-06-19T17:27:02.670Z,99.90
2018-06-19T17:29:31.675Z,99.90
2018-06-19T17:32:00.702Z,99.90
2018-06-19T17:34:29.779Z,99.90
2018-06-19T17:36:58.798Z,99.90
2018-06-19T17:39:27.868Z,99.90
2018-06-19T17:41:56.899Z,99.90
2018-06-19T17:44:25.915Z,99.90
2018-06-19T17:46:54.951Z,99.90
2018-06-19T17:49:24.013Z,99.90
2018-06-19T17:51:53.459Z,99.90
2018-06-19T17:54:22.574Z,99.90
2018-06-19T17:56:51.530Z,99.90
2018-06-19T17:59:20.555Z,99.90
2018-06-19T18:01:49.571Z,99.90
2018-06-19T18:04:18.597Z,99.90
2018-06-19T18:06:47.560Z,99.90
2018-06-19T18:09:16.738Z,99.90
2018-06-19T18:11:45.730Z,99.90
2018-06-19T18:14:14.699Z,99.90
2018-06-19T18:16:43.723Z,99.90
2018-06-19T18:19:12.754Z,99.90
2018-06-19T18:21:41.784Z,99.90
2018-06-19T18:24:10.768Z,99.90
2018-06-19T18:26:39.723Z,99.90
2018-06-19T18:29:08.790Z,99.90
2018-06-19T18:31:37.927Z,99.90
2018-06-19T18:34:06.971Z,99.90
2018-06-19T18:36:36.039Z,99.90
2018-06-19T18:39:07.280Z,99.90
2018-06-19T18:41:36.807Z,99.90
2018-06-19T18:44:05.824Z,99.90
2018-06-19T18:46:34.912Z,99.90
2018-06-19T18:49:03.978Z,99.90
2018-06-19T18:51:32.950Z,99.90
2018-06-19T18:54:02.001Z,99.90
2018-06-19T18:56:31.034Z,99.90
2018-06-19T18:58:59.998Z,99.90
2018-06-19T19:01:28.966Z,99.90
2018-06-19T19:03:57.927Z,99.90
2018-06-19T19:06:28.314Z,99.90
2018-06-19T19:08:57.297Z,99.90
2018-06-19T19:11:26.252Z,99.90
2018-06-19T19:13:55.300Z,99.90
2018-06-19T19:16:29.740Z,99.90
2018-06-19T19:19:01.528Z,99.90
2018-06-19T19:21:30.543Z,99.90
2018-06-19T19:23:59.639Z,99.90
2018-06-19T19:26:33.961Z,99.90
2018-06-19T19:31:39.342Z,99.90
2018-06-19T19:34:08.358Z,99.90
2018-06-19T19:36:42.661Z,99.90
2018-06-19T19:39:17.184Z,99.90
2018-06-19T19:41:46.345Z,99.90
2018-06-19T19:44:15.351Z,99.90
2018-06-19T19:46:49.627Z,99.90
2018-06-19T19:49:18.674Z,99.90
2018-06-19T19:51:47.735Z,99.90
2018-06-19T19:54:16.898Z,99.90
2018-06-19T19:56:51.449Z,99.90
2018-06-19T19:59:20.434Z,99.90
2018-06-19T20:01:49.399Z,99.90
2018-06-19T20:04:18.593Z,99.90
2018-06-19T20:06:47.591Z,99.90
2018-06-19T20:09:16.770Z,99.90
2018-06-19T20:11:45.991Z,99.90
2018-06-19T20:14:14.958Z,99.90
2018-06-19T20:16:44.019Z,99.90
2018-06-19T20:19:13.192Z,99.90
2018-06-19T20:21:42.171Z,99.90
2018-06-19T20:24:11.170Z,99.90
2018-06-19T20:26:40.227Z,99.90
2018-06-19T20:29:09.370Z,99.90
2018-06-19T20:31:38.400Z,99.90
2018-06-19T20:34:07.514Z,99.90
2018-06-19T20:36:36.619Z,99.90
2018-06-19T20:39:07.694Z,99.90
2018-06-19T20:41:36.792Z,99.90
2018-06-19T20:44:06.233Z,99.90
2018-06-19T20:46:35.225Z,99.90
2018-06-19T20:49:04.266Z,99.90
2018-06-19T20:51:33.251Z,99.90
2018-06-19T20:54:02.231Z,99.90
2018-06-19T20:56:31.242Z,99.90
2018-06-19T20:59:00.323Z,99.90
2018-06-19T21:01:29.319Z,99.90
2018-06-19T21:03:58.309Z,99.90
2018-06-19T21:06:27.271Z,99.90
2018-06-19T21:08:56.264Z,99.90
2018-06-19T21:11:25.375Z,99.90
2018-06-19T21:13:54.420Z,99.90
2018-06-19T21:16:23.380Z,99.90
2018-06-19T21:18:52.323Z,99.90
2018-06-19T21:21:21.317Z,99.90
2018-06-19T21:23:50.443Z,99.90
2018-06-19T21:26:19.426Z,99.90
2018-06-19T21:28:48.470Z,99.90
2018-06-19T21:31:17.438Z,99.90
2018-06-19T21:33:46.393Z,99.90
2018-06-19T21:36:15.523Z,99.90
2018-06-19T21:38:44.490Z,99.90
2018-06-19T21:41:13.478Z,99.90
2018-06-19T21:43:42.470Z,99.90
2018-06-19T21:46:11.478Z,99.90
2018-06-19T21:48:40.458Z,99.90
2018-06-19T21:51:09.482Z,99.90
2018-06-19T21:53:38.498Z,99.90
2018-06-19T21:56:07.538Z,99.90
2018-06-19T21:58:36.594Z,99.90
2018-06-19T22:01:05.654Z,99.90
2018-06-19T22:03:34.687Z,99.90
2018-06-19T22:06:03.658Z,99.90
2018-06-19T22:08:38.016Z,99.90
2018-06-19T22:11:07.216Z,99.90
2018-06-19T22:13:36.192Z,99.90
2018-06-19T22:16:05.166Z,99.90
2018-06-19T22:18:34.153Z,99.90
2018-06-19T22:21:03.230Z,99.90
2018-06-19T22:23:32.198Z,99.90
2018-06-19T22:26:01.237Z,99.90
2018-06-19T22:28:30.286Z,99.90
2018-06-19T22:30:59.395Z,99.90
2018-06-19T22:33:28.351Z,99.90
2018-06-19T22:35:57.363Z,99.90
2018-06-19T22:38:26.415Z,99.90
2018-06-19T22:41:01.615Z,99.90
2018-06-19T22:43:30.647Z,99.90
2018-06-19T22:45:59.606Z,99.90
2018-06-19T22:48:28.568Z,99.90
2018-06-19T22:50:57.518Z,99.90
2018-06-19T22:53:26.592Z,99.90
2018-06-19T22:55:55.606Z,99.90
2018-06-19T22:58:24.698Z,99.90
2018-06-19T23:00:53.678Z,99.90
2018-06-19T23:03:22.647Z,99.90
2018-06-19T23:05:51.628Z,99.90
2018-06-19T23:08:20.578Z,99.90
2018-06-19T23:10:49.538Z,99.90
2018-06-19T23:13:18.597Z,99.90
2018-06-19T23:15:47.547Z,99.90
2018-06-19T23:18:16.535Z,99.90
2018-06-19T23:20:45.562Z,99.90
2018-06-19T23:23:14.747Z,99.90
2018-06-19T23:25:43.703Z,99.90
2018-06-19T23:28:12.695Z,99.90
2018-06-19T23:30:41.678Z,99.90
2018-06-19T23:33:10.648Z,99.90
2018-06-19T23:35:39.599Z,99.90
2018-06-19T23:38:08.608Z,99.90
2018-06-19T23:40:37.557Z,99.90
2018-06-19T23:43:06.603Z,99.90
2018-06-19T23:45:35.555Z,99.90
2018-06-19T23:48:04.637Z,99.90
2018-06-19T23:50:33.623Z,99.90
2018-06-19T23:53:02.592Z,99.90
2018-06-19T23:55:31.634Z,99.90
2018-06-19T23:58:00.588Z,99.90
